Terminal Aerodrome Forecast
Issued by NWS

Home | Current Version | Previous Version | Text Only | Print | Product List | Glossary On
Versions: 1 2 3 4 5 6 7 8 9 10 11 12 13 14 15 16
000
FTUS42 TJSJ 211900 AAA
TAFKPK
TAF AMD
TKPK 211916Z 2119/2218 04010KT P6SM VCSH SCT018
      TEMPO 2119/2121 5SM SHRA BKN020 BKN035
     FM212200 06015G25KT P6SM VCTS SCT020CB
      TEMPO 2123/2201 4SM TSRA SCT020CB BKN030 OVC040
     FM220100 08018G27KT 4SM SHRA BKN022 BKN040=

USA.gov is the U.S. government's official web portal to all federal, state and local government web resources and services.